createdAt,value
2018-07-09T00:00:15.737Z,102224.62
2018-07-09T00:03:17.945Z,102224.33
2018-07-09T00:06:20.280Z,102224.35
2018-07-09T00:09:22.338Z,102220.24
2018-07-09T00:12:24.312Z,102218.56
2018-07-09T00:15:26.459Z,102220.36
2018-07-09T00:18:29.737Z,102216.51
2018-07-09T00:21:31.771Z,102219.57
2018-07-09T00:24:34.040Z,102216.17
2018-07-09T00:27:36.131Z,102222.68
2018-07-09T00:30:38.295Z,102221.01
2018-07-09T00:33:40.447Z,102219.54
2018-07-09T00:36:42.594Z,102220.99
2018-07-09T00:39:44.827Z,102224.06
2018-07-09T00:42:47.817Z,102229.56
2018-07-09T00:45:51.898Z,102227.30
2018-07-09T00:48:54.109Z,102228.93
2018-07-09T00:51:56.298Z,102225.85
2018-07-09T00:55:01.978Z,102234.15
2018-07-09T00:58:05.104Z,102234.89
2018-07-09T01:01:07.148Z,102234.80
2018-07-09T01:04:09.348Z,102237.05
2018-07-09T01:07:11.500Z,102233.05
2018-07-09T01:10:14.816Z,102228.67
2018-07-09T01:13:20.152Z,102226.71
2018-07-09T01:16:22.289Z,102225.63
2018-07-09T01:19:24.386Z,102226.74
2018-07-09T01:22:26.638Z,102227.09
2018-07-09T01:25:29.319Z,102227.13
2018-07-09T01:28:31.744Z,102232.19
2018-07-09T01:31:33.927Z,102228.30
2018-07-09T01:34:36.044Z,102223.31
2018-07-09T01:37:38.898Z,102229.70
2018-07-09T01:40:41.052Z,102230.15
2018-07-09T01:43:43.164Z,102233.80
2018-07-09T01:46:45.264Z,102225.49
2018-07-09T01:49:47.396Z,102227.56
2018-07-09T01:52:49.408Z,102230.52
2018-07-09T01:55:51.453Z,102219.94
2018-07-09T01:58:53.766Z,102218.92
2018-07-09T02:01:55.888Z,102214.88
2018-07-09T02:04:57.936Z,102221.71
2018-07-09T02:08:01.788Z,102223.45
2018-07-09T02:11:05.199Z,102221.58
2018-07-09T02:14:07.595Z,102224.95
2018-07-09T02:17:09.663Z,102219.48
2018-07-09T02:20:11.761Z,102221.91
2018-07-09T02:23:13.830Z,102217.12
2018-07-09T02:26:19.216Z,102219.59
2018-07-09T02:29:21.232Z,102219.98
2018-07-09T02:32:23.287Z,102222.51
2018-07-09T02:35:25.445Z,102221.09
2018-07-09T02:38:27.594Z,102225.46
2018-07-09T02:41:30.447Z,102223.48
2018-07-09T02:44:33.561Z,102222.45
2018-07-09T02:47:35.596Z,102228.28
2018-07-09T02:50:37.783Z,102235.43
2018-07-09T02:53:39.859Z,102232.86
2018-07-09T02:56:41.972Z,102237.76
2018-07-09T02:59:44.132Z,102242.09
2018-07-09T03:02:46.323Z,102243.11
2018-07-09T03:05:48.585Z,102244.59
2018-07-09T03:08:50.650Z,102246.36
2018-07-09T03:11:52.773Z,102247.00
2018-07-09T03:14:54.866Z,102243.79
2018-07-09T03:17:57.051Z,102245.54
2018-07-09T03:21:00.143Z,102246.10
2018-07-09T03:24:03.711Z,102248.07
2018-07-09T03:27:05.792Z,102242.38
2018-07-09T03:30:08.020Z,102244.28
2018-07-09T03:33:10.113Z,102249.63
2018-07-09T03:36:12.296Z,102248.79
2018-07-09T03:39:14.975Z,102252.00
2018-07-09T03:42:17.119Z,102251.59
2018-07-09T03:45:19.231Z,102254.61
2018-07-09T03:48:21.281Z,102254.66
2018-07-09T03:51:23.459Z,102249.26
2018-07-09T03:54:25.566Z,102246.74
2018-07-09T03:57:27.583Z,102248.08
2018-07-09T04:00:30.810Z,102248.91
2018-07-09T04:03:32.769Z,102249.25
2018-07-09T04:06:34.848Z,102250.63
2018-07-09T04:09:37.029Z,102252.67
2018-07-09T04:12:38.974Z,102260.31
2018-07-09T04:15:41.010Z,102264.08
2018-07-09T04:18:43.100Z,102268.15
2018-07-09T04:21:45.165Z,102266.49
2018-07-09T04:24:47.128Z,102264.56
2018-07-09T04:27:49.204Z,102264.44
2018-07-09T04:30:51.272Z,102261.01
2018-07-09T04:33:53.368Z,102266.56
2018-07-09T04:36:55.541Z,102265.00
2018-07-09T04:39:57.689Z,102263.50
2018-07-09T04:43:00.679Z,102260.84
2018-07-09T04:46:02.871Z,102257.93
2018-07-09T04:49:05.063Z,102253.93
2018-07-09T04:52:07.104Z,102253.33
2018-07-09T04:55:09.272Z,102249.78
2018-07-09T04:58:11.328Z,102249.65
2018-07-09T05:01:13.408Z,102254.06
2018-07-09T05:04:15.574Z,102254.68
2018-07-09T05:07:17.633Z,102261.19
2018-07-09T05:10:19.761Z,102262.03
2018-07-09T05:13:21.730Z,102260.42
2018-07-09T05:16:23.909Z,102261.34
2018-07-09T05:19:26.001Z,102254.66
2018-07-09T05:22:28.362Z,102259.38
2018-07-09T05:25:31.685Z,102258.12
2018-07-09T05:28:33.768Z,102251.06
2018-07-09T05:31:35.860Z,102249.55
2018-07-09T05:34:38.058Z,102251.39
2018-07-09T05:37:40.192Z,102245.24
2018-07-09T05:40:42.289Z,102244.01
2018-07-09T05:43:44.517Z,102249.61
2018-07-09T05:46:46.764Z,102245.76
2018-07-09T05:49:50.263Z,102241.38
2018-07-09T05:52:52.338Z,102240.19
2018-07-09T05:55:54.431Z,102239.33
2018-07-09T05:58:56.953Z,102240.00
2018-07-09T06:01:59.206Z,102240.09
2018-07-09T06:05:02.459Z,102238.59
2018-07-09T06:08:05.581Z,102238.14
2018-07-09T06:11:07.866Z,102244.34
2018-07-09T06:14:10.069Z,102248.11
2018-07-09T06:17:12.210Z,102246.39
2018-07-09T06:20:14.276Z,102245.99
2018-07-09T06:23:16.280Z,102252.45
2018-07-09T06:26:18.436Z,102249.63
2018-07-09T06:29:20.564Z,102250.84
2018-07-09T06:32:22.613Z,102248.46
2018-07-09T06:35:24.791Z,102248.81
2018-07-09T06:38:26.917Z,102244.33
2018-07-09T06:41:28.993Z,102245.70
2018-07-09T06:44:32.240Z,102246.80
2018-07-09T06:47:34.328Z,102244.99
2018-07-09T06:50:36.453Z,102249.97
2018-07-09T06:53:38.613Z,102247.28
2018-07-09T06:56:40.769Z,102242.76
2018-07-09T06:59:42.785Z,102242.14
2018-07-09T07:02:44.788Z,102236.98
2018-07-09T07:05:46.956Z,102238.57
2018-07-09T07:08:49.145Z,102232.27
2018-07-09T07:11:51.172Z,102230.63
2018-07-09T07:14:53.244Z,102219.83
2018-07-09T07:17:55.321Z,102218.09
2018-07-09T07:20:57.570Z,102215.76
2018-07-09T07:23:59.647Z,102218.31
2018-07-09T07:27:01.856Z,102217.03
2018-07-09T07:30:04.097Z,102207.52
2018-07-09T07:33:06.260Z,102206.35
2018-07-09T07:36:08.383Z,102200.46
2018-07-09T07:39:10.477Z,102201.48
2018-07-09T07:42:12.431Z,102196.82
2018-07-09T07:45:14.522Z,102196.43
2018-07-09T07:48:16.709Z,102192.43
2018-07-09T07:51:18.792Z,102195.96
2018-07-09T07:54:20.887Z,102193.08
2018-07-09T07:57:22.914Z,102195.43
2018-07-09T08:00:24.980Z,102191.27
2018-07-09T08:03:26.959Z,102186.89
2018-07-09T08:06:29.129Z,102187.60
2018-07-09T08:09:32.025Z,102190.96
2018-07-09T08:13:26.877Z,102185.25
2018-07-09T08:15:36.046Z,102192.83
2018-07-09T08:18:38.036Z,102192.53
2018-07-09T08:21:40.200Z,102195.27
2018-07-09T08:24:42.274Z,102193.62
2018-07-09T08:27:44.332Z,102188.42
2018-07-09T08:30:46.383Z,102181.65
2018-07-09T08:33:48.430Z,102184.36
2018-07-09T08:36:50.527Z,102184.39
2018-07-09T08:39:52.647Z,102180.47
2018-07-09T08:42:54.768Z,102176.87
2018-07-09T08:45:56.743Z,102175.01
2018-07-09T08:48:58.782Z,102173.03
2018-07-09T08:52:01.887Z,102168.86
2018-07-09T08:55:03.980Z,102165.50
2018-07-09T08:58:06.108Z,102171.15
2018-07-09T09:01:08.204Z,102176.55
2018-07-09T09:04:10.268Z,102173.73
2018-07-09T09:07:12.352Z,102168.19
2018-07-09T09:10:14.783Z,102161.32
2018-07-09T09:13:16.787Z,102162.00
2018-07-09T09:16:18.829Z,102159.31
2018-07-09T09:19:20.868Z,102158.36
2018-07-09T09:22:22.987Z,102156.69
2018-07-09T09:25:25.266Z,102144.28
2018-07-09T09:28:27.325Z,102154.93
2018-07-09T09:31:29.396Z,102146.91
2018-07-09T09:34:32.643Z,102145.34
2018-07-09T09:37:34.675Z,102140.51
2018-07-09T09:40:36.728Z,102143.84
2018-07-09T09:43:38.784Z,102138.83
2018-07-09T09:46:40.766Z,102139.41
2018-07-09T09:49:42.978Z,102136.97
2018-07-09T09:52:45.092Z,102129.61
2018-07-09T09:55:47.160Z,102125.83
2018-07-09T09:58:49.259Z,102123.46
2018-07-09T10:01:51.456Z,102123.88
2018-07-09T10:04:53.469Z,102120.18
2018-07-09T10:07:55.464Z,102126.57
2018-07-09T10:10:57.537Z,102123.63
2018-07-09T10:13:59.595Z,102127.03
2018-07-09T10:17:02.590Z,102121.20
2018-07-09T10:20:04.747Z,102121.69
2018-07-09T10:23:06.905Z,102122.45
2018-07-09T10:26:08.999Z,102119.67
2018-07-09T10:29:11.049Z,102115.16
2018-07-09T10:32:13.107Z,102104.18
2018-07-09T10:35:15.396Z,102108.25
2018-07-09T10:38:17.473Z,102104.20
2018-07-09T10:41:19.561Z,102101.95
2018-07-09T10:44:21.703Z,102105.76
2018-07-09T10:47:23.721Z,102092.39
2018-07-09T10:50:25.751Z,102096.12
2018-07-09T10:53:27.811Z,102090.16
2018-07-09T10:56:29.882Z,102090.69
2018-07-09T10:59:32.776Z,102087.46
2018-07-09T11:02:34.837Z,102089.63
2018-07-09T11:05:36.955Z,102079.53
2018-07-09T11:08:39.070Z,102080.33
2018-07-09T11:11:41.184Z,102083.12
2018-07-09T11:14:47.910Z,102081.29
2018-07-09T11:17:50.103Z,102084.31
2018-07-09T11:20:52.170Z,102077.57
2018-07-09T11:23:54.299Z,102080.35
2018-07-09T11:26:56.417Z,102073.97
2018-07-09T11:29:58.522Z,102072.92
2018-07-09T11:33:00.500Z,102073.33
2018-07-09T11:36:03.623Z,102072.98
2018-07-09T11:39:06.171Z,102075.80
2018-07-09T11:42:08.182Z,102067.10
2018-07-09T11:45:10.259Z,102074.93
2018-07-09T11:48:12.216Z,102065.98
2018-07-09T11:51:14.269Z,102063.37
2018-07-09T11:54:16.415Z,102053.14
2018-07-09T11:57:18.540Z,102052.65
2018-07-09T12:00:20.623Z,102054.96
2018-07-09T12:03:22.659Z,102054.88
2018-07-09T12:06:24.739Z,102054.62
2018-07-09T12:09:26.931Z,102036.37
2018-07-09T12:12:30.016Z,102041.66
2018-07-09T12:15:32.575Z,102032.94
2018-07-09T12:18:34.716Z,102040.14
2018-07-09T12:21:37.114Z,102039.52
2018-07-09T12:24:39.118Z,102037.95
2018-07-09T12:27:41.244Z,102044.28
2018-07-09T12:30:43.354Z,102031.05
2018-07-09T12:33:45.319Z,102025.94
2018-07-09T12:36:47.365Z,102026.57
2018-07-09T12:39:49.552Z,102030.70
2018-07-09T12:42:51.548Z,102033.32
2018-07-09T12:45:53.644Z,102026.89
2018-07-09T12:48:55.780Z,102022.76
2018-07-09T12:51:57.883Z,102023.15
2018-07-09T12:54:59.981Z,102018.12
2018-07-09T12:58:03.368Z,102020.15
2018-07-09T13:01:06.585Z,102019.18
2018-07-09T13:04:08.607Z,102022.04
2018-07-09T13:07:10.943Z,102011.99
2018-07-09T13:10:13.008Z,102003.81
2018-07-09T13:13:15.007Z,101994.91
2018-07-09T13:16:17.181Z,101995.10
2018-07-09T13:19:19.413Z,101992.88
2018-07-09T13:22:21.473Z,101989.80
2018-07-09T13:25:23.608Z,101991.08
2018-07-09T13:28:25.696Z,101998.32
2018-07-09T13:31:28.451Z,102001.30
2018-07-09T13:34:30.490Z,101994.62
2018-07-09T13:37:32.698Z,101987.17
2018-07-09T13:40:34.831Z,101987.77
2018-07-09T13:43:37.140Z,101986.39
2018-07-09T13:46:39.250Z,101986.37
2018-07-09T13:49:42.223Z,101989.60
2018-07-09T13:52:44.472Z,101974.61
2018-07-09T13:55:46.748Z,101987.51
2018-07-09T13:58:48.940Z,101983.63
2018-07-09T14:01:51.200Z,101982.73
2018-07-09T14:04:53.273Z,101980.39
2018-07-09T14:07:55.374Z,101975.35
2018-07-09T14:10:57.677Z,101967.93
2018-07-09T14:13:59.954Z,101966.82
2018-07-09T14:17:01.947Z,101965.81
2018-07-09T14:20:19.259Z,101958.07
2018-07-09T14:23:21.474Z,101960.29
2018-07-09T14:26:23.688Z,101947.74
2018-07-09T14:29:25.809Z,101948.26
2018-07-09T14:32:30.000Z,101949.60
2018-07-09T14:35:33.608Z,101943.15
2018-07-09T14:38:35.728Z,101941.40
2018-07-09T14:41:37.800Z,101940.55
2018-07-09T14:44:40.854Z,101948.14
2018-07-09T14:47:42.963Z,101940.58
2018-07-09T14:50:44.915Z,101939.61
2018-07-09T14:53:46.974Z,101939.72
2018-07-09T14:56:49.151Z,101930.28
2018-07-09T14:59:51.427Z,101930.19
2018-07-09T15:02:53.636Z,101934.72
2018-07-09T15:05:55.772Z,101933.78
2018-07-09T15:08:58.019Z,101927.40
2018-07-09T15:12:01.075Z,101917.80
2018-07-09T15:15:03.309Z,101918.54
2018-07-09T15:18:05.516Z,101921.16
2018-07-09T15:21:07.680Z,101921.80
2018-07-09T15:24:09.746Z,101921.82
2018-07-09T15:27:11.799Z,101925.06
2018-07-09T15:30:13.866Z,101919.99
2018-07-09T15:33:15.927Z,101915.04
2018-07-09T15:36:17.995Z,101912.33
2018-07-09T15:39:20.217Z,101909.58
2018-07-09T15:42:22.461Z,101908.09
2018-07-09T15:45:24.682Z,101909.48
2018-07-09T15:48:26.785Z,101902.87
2018-07-09T15:51:28.853Z,101902.96
2018-07-09T15:54:31.963Z,101902.58
2018-07-09T15:57:34.039Z,101900.36
2018-07-09T16:00:36.078Z,101887.19
2018-07-09T16:03:38.263Z,101900.17
2018-07-09T16:06:40.357Z,101889.88
2018-07-09T16:09:42.396Z,101883.73
2018-07-09T16:12:44.363Z,101884.48
2018-07-09T16:15:46.524Z,101880.26
2018-07-09T16:18:48.656Z,101878.13
2018-07-09T16:21:50.769Z,101876.70
2018-07-09T16:24:52.831Z,101872.75
2018-07-09T16:27:55.999Z,101871.46
2018-07-09T16:30:58.036Z,101874.45
2018-07-09T16:34:00.917Z,101877.83
2018-07-09T16:37:02.939Z,101879.31
2018-07-09T16:40:05.090Z,101871.99
2018-07-09T16:43:07.242Z,101871.88
2018-07-09T16:46:09.259Z,101869.15
2018-07-09T16:49:12.411Z,101870.80
2018-07-09T16:52:14.539Z,101874.11
2018-07-09T16:55:16.540Z,101868.63
2018-07-09T16:58:18.677Z,101865.06
2018-07-09T17:01:20.764Z,101862.82
2018-07-09T17:04:22.869Z,101872.16
2018-07-09T17:07:24.990Z,101870.56
2018-07-09T17:10:27.052Z,101866.21
2018-07-09T17:13:29.198Z,101869.17
2018-07-09T17:16:31.768Z,101869.07
2018-07-09T17:19:33.778Z,101870.71
2018-07-09T17:22:35.807Z,101875.69
2018-07-09T17:25:37.956Z,101873.47
2018-07-09T17:28:40.102Z,101869.13
2018-07-09T17:31:42.141Z,101869.42
2018-07-09T17:34:44.339Z,101870.31
2018-07-09T17:37:46.660Z,101873.07
2018-07-09T17:40:48.525Z,101870.45
2018-07-09T17:43:50.915Z,101872.70
2018-07-09T17:46:53.195Z,101876.02
2018-07-09T17:49:56.412Z,101872.82
2018-07-09T17:52:59.517Z,101876.80
2018-07-09T17:56:02.683Z,101879.30
2018-07-09T17:59:04.776Z,101888.62
2018-07-09T18:02:07.021Z,101889.99
2018-07-09T18:05:09.137Z,101890.15
2018-07-09T18:08:11.177Z,101888.81
2018-07-09T18:11:13.247Z,101885.34
2018-07-09T18:14:15.268Z,101878.22
2018-07-09T18:17:17.292Z,101881.27
2018-07-09T18:20:19.344Z,101885.64
2018-07-09T18:23:21.408Z,101881.84
2018-07-09T18:26:23.506Z,101882.47
2018-07-09T18:29:26.696Z,101882.07
2018-07-09T18:32:28.919Z,101886.39
2018-07-09T18:35:31.071Z,101885.10
2018-07-09T18:38:33.097Z,101883.49
2018-07-09T18:41:35.201Z,101882.90
2018-07-09T18:44:37.432Z,101886.73
2018-07-09T18:47:39.501Z,101888.27
2018-07-09T18:50:41.794Z,101891.07
2018-07-09T18:53:43.936Z,101888.41
2018-07-09T18:56:46.074Z,101890.51
2018-07-09T18:59:48.483Z,101892.71
2018-07-09T19:02:50.786Z,101893.20
2018-07-09T19:06:58.859Z,101896.44
2018-07-09T19:10:01.613Z,101901.53
2018-07-09T19:13:03.800Z,101906.34
2018-07-09T19:16:06.115Z,101906.31
2018-07-09T19:19:19.884Z,101904.37
2018-07-09T19:22:31.103Z,101907.42
2018-07-09T19:25:33.467Z,101908.61
2018-07-09T19:28:34.492Z,101907.91
2018-07-09T19:31:35.727Z,101899.05
2018-07-09T19:34:36.996Z,101900.53
2018-07-09T19:37:39.501Z,101898.97
2018-07-09T19:40:40.398Z,101905.57
2018-07-09T19:43:41.671Z,101908.66
2018-07-09T19:46:42.856Z,101906.16
2018-07-09T19:49:43.920Z,101907.62
2018-07-09T19:52:46.179Z,101910.63
2018-07-09T19:55:47.336Z,101909.09
2018-07-09T19:58:48.456Z,101911.13
2018-07-09T20:01:49.583Z,101916.57
2018-07-09T20:04:50.744Z,101926.37
2018-07-09T20:07:51.788Z,101933.32
2018-07-09T20:10:58.703Z,101932.68
2018-07-09T20:14:05.691Z,101930.58
2018-07-09T20:17:20.597Z,101928.11
2018-07-09T20:20:21.784Z,101920.54
2018-07-09T20:23:22.908Z,101928.11
2018-07-09T20:26:24.093Z,101930.51
2018-07-09T20:29:26.264Z,101934.88
2018-07-09T20:32:27.510Z,101938.38
2018-07-09T20:35:28.534Z,101933.86
2018-07-09T20:38:29.713Z,101933.03
2018-07-09T20:41:30.960Z,101933.59
2018-07-09T20:44:32.144Z,101928.04
2018-07-09T20:47:33.492Z,101933.25
2018-07-09T20:50:34.702Z,101930.47
2018-07-09T20:53:35.844Z,101935.03
2018-07-09T20:56:36.859Z,101933.75
2018-07-09T20:59:37.927Z,101931.06
2018-07-09T21:02:39.074Z,101927.51
2018-07-09T21:05:40.231Z,101928.78
2018-07-09T21:08:42.296Z,101924.19
2018-07-09T21:11:43.423Z,101931.12
2018-07-09T21:14:44.593Z,101935.15
2018-07-09T21:17:45.852Z,101936.00
2018-07-09T21:20:46.967Z,101939.42
2018-07-09T21:23:48.127Z,101945.53
2018-07-09T21:26:49.247Z,101944.32
2018-07-09T21:29:51.415Z,101947.24
2018-07-09T21:32:52.512Z,101950.93
2018-07-09T21:35:53.749Z,101954.91
2018-07-09T21:38:54.856Z,101958.89
2018-07-09T21:41:56.226Z,101956.20
2018-07-09T21:44:57.228Z,101957.47
2018-07-09T21:48:10.425Z,101955.67
2018-07-09T21:50:59.584Z,101950.98
2018-07-09T21:54:00.727Z,101949.87
2018-07-09T21:57:01.779Z,101953.46
2018-07-09T22:00:03.048Z,101957.94
2018-07-09T22:03:04.184Z,101962.44
2018-07-09T22:06:05.292Z,101952.75
2018-07-09T22:09:06.556Z,101953.53
2018-07-09T22:12:07.576Z,101952.13
2018-07-09T22:15:08.671Z,101942.78
2018-07-09T22:18:09.905Z,101944.70
2018-07-09T22:21:11.051Z,101942.62
2018-07-09T22:24:12.232Z,101942.01
2018-07-09T22:27:13.452Z,101944.08
2018-07-09T22:30:16.271Z,101944.98
2018-07-09T22:33:18.267Z,101949.75
2018-07-09T22:36:20.357Z,101946.97
2018-07-09T22:39:22.466Z,101944.31
2018-07-09T22:42:24.515Z,101946.07
2018-07-09T22:45:27.796Z,101944.28
2018-07-09T22:48:30.041Z,101946.18
2018-07-09T22:51:32.031Z,101945.70
2018-07-09T22:54:34.391Z,101952.30
2018-07-09T22:57:36.507Z,101949.77
2018-07-09T23:00:38.567Z,101946.14
2018-07-09T23:03:40.803Z,101940.89
2018-07-09T23:06:42.907Z,101941.01
2018-07-09T23:11:27.218Z,101938.28
2018-07-09T23:14:43.616Z,101935.99
2018-07-09T23:18:58.256Z,101934.19
2018-07-09T23:22:21.252Z,101930.45
2018-07-09T23:25:22.456Z,101931.63
2018-07-09T23:28:23.588Z,101936.31
2018-07-09T23:31:24.739Z,101935.54
2018-07-09T23:34:26.551Z,101930.97
2018-07-09T23:37:27.761Z,101927.43
2018-07-09T23:40:28.892Z,101931.26
2018-07-09T23:43:30.127Z,101930.77
2018-07-09T23:46:31.488Z,101931.31
2018-07-09T23:49:32.643Z,101927.51
2018-07-09T23:52:33.786Z,101927.03
2018-07-09T23:55:36.182Z,101920.40
2018-07-09T23:59:50.494Z,101924.19
